Startpagina
METAR-TAF:

METAR-TAF

Vliegvelden :

Phillip Goldston

Belize City, Belize

breedte: 17-32N, lengte: 088-18W, hoogte: 5 m

Actueel weer

Dit bericht is 7 uur en het 34 minuten geleden gemaakt, om 02:00 UTC
Wind 5 kt uit het oosten
Temperatuur 28°C
Vochtigheid 79%
Druk 1013 hPa
Zicht 10 km of meer
Weinig wolken op 1800 ft
Gebroken wolken op 4200 ft

METAR: MZBZ 220200Z 09005KT 9999 FEW018 BKN042 28/24 A2993 Q1013 NOSIG

Tijdstip: 03:34 (09:34 UTC)

Verwachting

Dit bericht is 6 uur en het 34 minuten geleden gemaakt, om 03:00 UTC
Verwachting geldig van 22 om 06 UTC tot 23 om 06 UTC
Wind 10 kt uit het oosten
Zicht 10 km of meer
Verspreide wolken op 2000 ft
Verspreide wolken op 4500 ft
Kans 30% :
Tijdelijke
van 22 om 09 UTC tot 22 om 15 UTC
Zicht: 5000 m
Gebroken wolken op 1500 ft
regenbuien

TAF: MZBZ 220300Z 2206/2306 08010KT 9999 SCT020 SCT045 PROB30 TEMPO 2209/2215 5000 SHRA BKN015

Waarnemingen en weersverwachtingen van meer dan 4000 vliegvelden (METAR en TAF).

De beschikbare stations zijn de gele en rode punten op de kaart.

Ga met uw muis naar het station om de naam te zien.

Klik dan om waarnemingen en weersverwachtingen te zien.

kaart wijzigen: klik op de groene knoppen met een zwart kruis om in te zoomen, op de groene knop met een streepje om uit te zoomen of op de groene pijlen voor aangrenzende kaarten.


METAR-TAF: